Rainbow Lake, NY (12976)

11:48 AM EDT on September 27, 2016 (GMT -0400)
Meenahga Mountain | | Change Station

Elev 2011 ft 44.50 °N, 74.15 °W | Updated 2 seconds ago

Overcast
Overcast
56.8 °F
Feels Like 56.8 °F
N
7.5
Wind Variable Wind from SW
Gusts 12.0 mph

Today
High -- | Low -- °F
--% Chance of Precip.
Yesterday
High -- | Low -- °F
Precip. -- in
Pressure 29.88 in
Visibility 10.0 miles
Clouds Overcast 7000 ft
Dew Point 47 °F
Humidity 71%
Rainfall 0.07 in
Snow Depth Not available.
6:50 AM 6:43 PM
Waning Crescent, 11% visible
METAR KSLK 271451Z AUTO 25006KT 10SM OVC070 16/09 A2988 RMK AO2 SLP118 T01560089 58001
Pressure 29.88 in
Visibility 10.0 miles
Clouds Overcast 7000 ft
Dew Point 47 °F
Humidity 71%
Rainfall 0.07 in
Snow Depth Not available.
6:50 AM 6:43 PM
Waning Crescent, 11% visible
METAR KSLK 271451Z AUTO 25006KT 10SM OVC070 16/09 A2988 RMK AO2 SLP118 T01560089 58001

10-Day Weather Forecast

Almanac

Astronomy

Sep. 27, 2016 Rise Set
Actual Time
Civil Twilight
Nautical Twilight
Astronomical Twilight
Moon
Length of Visible Light
Length of Day
Tomorrow will be .
, % of the Moon is Illuminated

Today's Extremes

State Highs State Lows

Community

WunderPhotos

Upload Photos

1,942,115 photos uploaded!

WunderBlog® & News

Nearby

Air Quality

  Air Quality AQ Index Pollutant
Not available.

Snow Depth

Station Depth Elevation

Earthquake Activity

City Distance Mag. Time & Date
Minimum magnitude displayed is 2.5.

Coastal Water Temperatures

Place Temperature

Stations

Nearby Weather Stations

Station Location Temp. Windchill Dew Point Humidity Wind Precip. Elev Updated Type
                   

Watches & Warnings

There are currently no watches in effect.